KGNT/GNT METAR and TAF weather

Enter ICAO airport designator
Station Type Date Time Source
KGNT METAR 2019/12/09 13:55 UTC NOAA

KGNT 091355Z AUTO 28003KT 10SM OVC033 02/00 A3000 RMK AO2 T00200000


Station Type Date Time Source
KGNT Decoded METAR 2019/12/09 13:55 UTC NOAA

GRANTS-MILAN MUNICIPAL AIRPORT , NM, United States (KGNT) 35-10N 107-54W 1987M
Dec 09, 2019 - 08:55 AM EST / 2019.12.09 1355 UTC
Wind: from the W (280 degrees) at 3 MPH (3 KT):0
Visibility: 10 mile(s):0
Sky conditions: overcast
Temperature: 35.6 F (2.0 C)
Dew Point: 32.0 F (0.0 C)
Relative Humidity: 86%
Pressure (altimeter): 30 in. Hg (1015 hPa)
ob: KGNT 091355Z AUTO 28003KT 10SM OVC033 02/00 A3000 RMK AO2 T00200000
cycle: 14

Station Type Date Time Source
KGNT TAF UTC NOAA

Error!

Example: see airport list